sensor_id;sensor_type;location;lat;lon;timestamp;P1;durP1;ratioP1;P2;durP2;ratioP2
9906;SDS011;4992;51.628;6.664;2023-06-24T00:00:01;125.90;;;108.32;;
9906;SDS011;4992;51.628;6.664;2023-06-24T00:02:31;129.23;;;110.35;;
9906;SDS011;4992;51.628;6.664;2023-06-24T00:08:01;106.07;;;93.55;;
9906;SDS011;4992;51.628;6.664;2023-06-24T00:10:27;96.47;;;85.95;;
9906;SDS011;4992;51.628;6.664;2023-06-24T00:12:54;78.30;;;69.18;;
9906;SDS011;4992;51.628;6.664;2023-06-24T00:15:20;74.80;;;66.57;;
9906;SDS011;4992;51.628;6.664;2023-06-24T00:17:46;69.38;;;60.40;;
9906;SDS011;4992;51.628;6.664;2023-06-24T00:20:13;65.97;;;58.78;;
9906;SDS011;4992;51.628;6.664;2023-06-24T00:22:39;64.43;;;57.65;;
9906;SDS011;4992;51.628;6.664;2023-06-24T00:25:08;62.70;;;55.88;;
9906;SDS011;4992;51.628;6.664;2023-06-24T00:27:34;57.22;;;51.10;;
9906;SDS011;4992;51.628;6.664;2023-06-24T00:30:00;50.08;;;45.13;;
9906;SDS011;4992;51.628;6.664;2023-06-24T00:32:26;51.67;;;46.17;;
9906;SDS011;4992;51.628;6.664;2023-06-24T00:34:52;51.63;;;46.10;;
9906;SDS011;4992;51.628;6.664;2023-06-24T00:37:20;42.60;;;38.25;;
9906;SDS011;4992;51.628;6.664;2023-06-24T00:39:46;37.20;;;33.38;;
9906;SDS011;4992;51.628;6.664;2023-06-24T00:42:12;38.13;;;34.15;;
9906;SDS011;4992;51.628;6.664;2023-06-24T00:44:38;39.80;;;35.58;;
9906;SDS011;4992;51.628;6.664;2023-06-24T00:47:05;37.60;;;32.65;;
9906;SDS011;4992;51.628;6.664;2023-06-24T00:49:31;33.22;;;29.15;;
9906;SDS011;4992;51.628;6.664;2023-06-24T00:51:57;37.30;;;33.50;;
9906;SDS011;4992;51.628;6.664;2023-06-24T00:54:26;36.42;;;31.13;;
9906;SDS011;4992;51.628;6.664;2023-06-24T00:56:55;33.50;;;29.85;;
9906;SDS011;4992;51.628;6.664;2023-06-24T00:59:22;35.17;;;29.60;;
9906;SDS011;4992;51.628;6.664;2023-06-24T01:01:48;29.90;;;26.70;;
9906;SDS011;4992;51.628;6.664;2023-06-24T01:04:17;23.88;;;21.23;;
9906;SDS011;4992;51.628;6.664;2023-06-24T01:06:44;21.27;;;19.08;;
9906;SDS011;4992;51.628;6.664;2023-06-24T01:09:11;18.77;;;16.80;;
9906;SDS011;4992;51.628;6.664;2023-06-24T01:11:38;16.52;;;14.90;;
9906;SDS011;4992;51.628;6.664;2023-06-24T01:14:04;18.67;;;16.63;;
9906;SDS011;4992;51.628;6.664;2023-06-24T01:22:23;18.88;;;13.40;;
9906;SDS011;4992;51.628;6.664;2023-06-24T01:30:08;13.25;;;11.18;;
9906;SDS011;4992;51.628;6.664;2023-06-24T01:32:43;12.95;;;11.30;;
9906;SDS011;4992;51.628;6.664;2023-06-24T01:35:11;11.70;;;9.93;;
9906;SDS011;4992;51.628;6.664;2023-06-24T01:37:45;13.00;;;11.20;;
9906;SDS011;4992;51.628;6.664;2023-06-24T01:40:20;11.48;;;9.93;;
9906;SDS011;4992;51.628;6.664;2023-06-24T01:42:48;12.15;;;9.93;;
9906;SDS011;4992;51.628;6.664;2023-06-24T01:45:21;10.63;;;9.52;;
9906;SDS011;4992;51.628;6.664;2023-06-24T01:47:49;12.10;;;9.90;;
9906;SDS011;4992;51.628;6.664;2023-06-24T01:50:19;10.73;;;9.63;;
9906;SDS011;4992;51.628;6.664;2023-06-24T01:52:46;10.65;;;9.57;;
9906;SDS011;4992;51.628;6.664;2023-06-24T01:55:15;10.43;;;9.43;;
9906;SDS011;4992;51.628;6.664;2023-06-24T01:57:42;9.73;;;8.82;;
9906;SDS011;4992;51.628;6.664;2023-06-24T02:00:09;11.95;;;8.55;;
9906;SDS011;4992;51.628;6.664;2023-06-24T02:02:36;8.93;;;8.18;;
9906;SDS011;4992;51.628;6.664;2023-06-24T02:05:03;9.70;;;8.70;;
9906;SDS011;4992;51.628;6.664;2023-06-24T02:07:30;10.18;;;8.40;;
9906;SDS011;4992;51.628;6.664;2023-06-24T02:09:57;9.20;;;8.38;;
9906;SDS011;4992;51.628;6.664;2023-06-24T02:12:23;8.75;;;7.82;;
9906;SDS011;4992;51.628;6.664;2023-06-24T02:14:50;9.52;;;7.95;;
9906;SDS011;4992;51.628;6.664;2023-06-24T02:17:16;9.05;;;7.43;;
9906;SDS011;4992;51.628;6.664;2023-06-24T02:19:43;9.77;;;7.70;;
9906;SDS011;4992;51.628;6.664;2023-06-24T02:22:09;15.65;;;8.20;;
9906;SDS011;4992;51.628;6.664;2023-06-24T02:24:36;7.72;;;7.03;;
9906;SDS011;4992;51.628;6.664;2023-06-24T02:27:03;8.63;;;7.30;;
9906;SDS011;4992;51.628;6.664;2023-06-24T02:29:29;8.48;;;7.60;;
9906;SDS011;4992;51.628;6.664;2023-06-24T02:31:56;7.57;;;6.88;;
9906;SDS011;4992;51.628;6.664;2023-06-24T02:34:24;8.65;;;7.53;;
9906;SDS011;4992;51.628;6.664;2023-06-24T02:36:50;8.40;;;7.60;;
9906;SDS011;4992;51.628;6.664;2023-06-24T02:39:16;8.75;;;8.00;;
9906;SDS011;4992;51.628;6.664;2023-06-24T02:41:42;8.85;;;8.00;;
9906;SDS011;4992;51.628;6.664;2023-06-24T02:44:09;9.20;;;7.90;;
9906;SDS011;4992;51.628;6.664;2023-06-24T02:46:35;9.13;;;8.18;;
9906;SDS011;4992;51.628;6.664;2023-06-24T02:49:02;8.02;;;7.22;;
9906;SDS011;4992;51.628;6.664;2023-06-24T02:51:28;10.48;;;7.93;;
9906;SDS011;4992;51.628;6.664;2023-06-24T02:53:55;8.63;;;7.80;;
9906;SDS011;4992;51.628;6.664;2023-06-24T02:56:23;9.65;;;7.80;;
9906;SDS011;4992;51.628;6.664;2023-06-24T02:58:50;9.00;;;8.05;;
9906;SDS011;4992;51.628;6.664;2023-06-24T03:01:17;9.35;;;8.55;;
9906;SDS011;4992;51.628;6.664;2023-06-24T03:03:50;9.85;;;8.35;;
9906;SDS011;4992;51.628;6.664;2023-06-24T03:06:17;9.55;;;8.65;;
9906;SDS011;4992;51.628;6.664;2023-06-24T03:08:44;10.32;;;8.77;;
9906;SDS011;4992;51.628;6.664;2023-06-24T03:11:13;10.98;;;9.43;;
9906;SDS011;4992;51.628;6.664;2023-06-24T03:13:39;11.38;;;9.70;;
9906;SDS011;4992;51.628;6.664;2023-06-24T03:16:05;12.07;;;10.05;;
9906;SDS011;4992;51.628;6.664;2023-06-24T03:18:36;10.38;;;9.32;;
9906;SDS011;4992;51.628;6.664;2023-06-24T03:21:03;12.63;;;10.82;;
9906;SDS011;4992;51.628;6.664;2023-06-24T03:23:31;11.57;;;10.38;;
9906;SDS011;4992;51.628;6.664;2023-06-24T03:25:57;17.30;;;13.63;;
9906;SDS011;4992;51.628;6.664;2023-06-24T03:28:23;19.23;;;13.80;;
9906;SDS011;4992;51.628;6.664;2023-06-24T03:30:48;17.13;;;15.38;;
9906;SDS011;4992;51.628;6.664;2023-06-24T03:33:14;17.23;;;15.43;;
9906;SDS011;4992;51.628;6.664;2023-06-24T03:35:45;18.02;;;16.08;;
9906;SDS011;4992;51.628;6.664;2023-06-24T03:38:10;16.30;;;14.63;;
9906;SDS011;4992;51.628;6.664;2023-06-24T03:40:37;17.08;;;15.02;;
9906;SDS011;4992;51.628;6.664;2023-06-24T03:43:02;16.58;;;15.00;;
9906;SDS011;4992;51.628;6.664;2023-06-24T03:45:28;16.60;;;14.90;;
9906;SDS011;4992;51.628;6.664;2023-06-24T03:47:54;18.15;;;15.50;;
9906;SDS011;4992;51.628;6.664;2023-06-24T03:50:20;16.80;;;15.10;;
9906;SDS011;4992;51.628;6.664;2023-06-24T03:52:46;16.70;;;15.00;;
9906;SDS011;4992;51.628;6.664;2023-06-24T03:55:12;16.40;;;14.80;;
9906;SDS011;4992;51.628;6.664;2023-06-24T03:57:38;17.05;;;15.35;;
9906;SDS011;4992;51.628;6.664;2023-06-24T04:00:04;16.90;;;15.30;;
9906;SDS011;4992;51.628;6.664;2023-06-24T04:02:44;21.25;;;16.48;;
9906;SDS011;4992;51.628;6.664;2023-06-24T04:05:10;19.90;;;17.45;;
9906;SDS011;4992;51.628;6.664;2023-06-24T04:07:36;18.27;;;16.55;;
9906;SDS011;4992;51.628;6.664;2023-06-24T04:10:03;19.65;;;17.63;;
9906;SDS011;4992;51.628;6.664;2023-06-24T04:12:36;18.58;;;16.63;;
9906;SDS011;4992;51.628;6.664;2023-06-24T04:15:02;18.75;;;16.73;;
9906;SDS011;4992;51.628;6.664;2023-06-24T04:17:29;18.88;;;16.30;;
9906;SDS011;4992;51.628;6.664;2023-06-24T04:19:55;18.77;;;14.45;;
9906;SDS011;4992;51.628;6.664;2023-06-24T04:22:21;16.00;;;14.40;;
9906;SDS011;4992;51.628;6.664;2023-06-24T04:24:47;15.77;;;14.18;;
9906;SDS011;4992;51.628;6.664;2023-06-24T04:27:13;15.88;;;14.27;;
9906;SDS011;4992;51.628;6.664;2023-06-24T04:29:39;15.35;;;13.85;;
9906;SDS011;4992;51.628;6.664;2023-06-24T04:32:05;17.08;;;13.63;;
9906;SDS011;4992;51.628;6.664;2023-06-24T04:34:31;14.20;;;12.80;;
9906;SDS011;4992;51.628;6.664;2023-06-24T04:36:57;13.90;;;12.50;;
9906;SDS011;4992;51.628;6.664;2023-06-24T04:39:23;13.10;;;11.80;;
9906;SDS011;4992;51.628;6.664;2023-06-24T04:41:49;13.02;;;11.20;;
9906;SDS011;4992;51.628;6.664;2023-06-24T04:44:15;12.15;;;10.93;;
9906;SDS011;4992;51.628;6.664;2023-06-24T04:46:41;12.52;;;11.18;;
9906;SDS011;4992;51.628;6.664;2023-06-24T04:49:07;12.63;;;11.32;;
9906;SDS011;4992;51.628;6.664;2023-06-24T04:51:33;12.50;;;11.25;;
9906;SDS011;4992;51.628;6.664;2023-06-24T04:54:00;13.45;;;11.15;;
9906;SDS011;4992;51.628;6.664;2023-06-24T04:56:26;13.73;;;10.43;;
9906;SDS011;4992;51.628;6.664;2023-06-24T04:58:52;12.27;;;10.18;;
9906;SDS011;4992;51.628;6.664;2023-06-24T05:01:18;12.95;;;11.10;;
9906;SDS011;4992;51.628;6.664;2023-06-24T05:03:44;11.18;;;9.98;;
9906;SDS011;4992;51.628;6.664;2023-06-24T05:06:10;13.40;;;9.45;;
9906;SDS011;4992;51.628;6.664;2023-06-24T05:08:36;15.60;;;9.93;;
9906;SDS011;4992;51.628;6.664;2023-06-24T05:11:03;15.20;;;10.45;;
9906;SDS011;4992;51.628;6.664;2023-06-24T05:13:30;13.38;;;9.27;;
9906;SDS011;4992;51.628;6.664;2023-06-24T05:15:56;14.30;;;10.68;;
9906;SDS011;4992;51.628;6.664;2023-06-24T05:18:22;12.70;;;10.77;;
9906;SDS011;4992;51.628;6.664;2023-06-24T05:20:48;14.18;;;10.43;;
9906;SDS011;4992;51.628;6.664;2023-06-24T05:23:14;16.50;;;10.23;;
9906;SDS011;4992;51.628;6.664;2023-06-24T05:25:40;11.30;;;10.10;;
9906;SDS011;4992;51.628;6.664;2023-06-24T05:28:06;12.13;;;10.05;;
9906;SDS011;4992;51.628;6.664;2023-06-24T05:30:32;12.68;;;10.75;;
9906;SDS011;4992;51.628;6.664;2023-06-24T05:32:58;12.85;;;10.00;;
9906;SDS011;4992;51.628;6.664;2023-06-24T05:35:24;12.20;;;10.38;;
9906;SDS011;4992;51.628;6.664;2023-06-24T05:37:50;15.80;;;11.25;;
9906;SDS011;4992;51.628;6.664;2023-06-24T05:40:16;12.57;;;10.75;;
9906;SDS011;4992;51.628;6.664;2023-06-24T05:42:42;11.80;;;9.35;;
9906;SDS011;4992;51.628;6.664;2023-06-24T05:45:08;13.93;;;10.60;;
9906;SDS011;4992;51.628;6.664;2023-06-24T05:47:34;11.70;;;10.40;;
9906;SDS011;4992;51.628;6.664;2023-06-24T05:50:00;13.93;;;10.63;;
9906;SDS011;4992;51.628;6.664;2023-06-24T05:52:26;14.77;;;12.10;;
9906;SDS011;4992;51.628;6.664;2023-06-24T05:54:53;13.23;;;11.32;;
9906;SDS011;4992;51.628;6.664;2023-06-24T05:57:19;13.60;;;11.05;;
9906;SDS011;4992;51.628;6.664;2023-06-24T05:59:45;11.25;;;10.15;;
9906;SDS011;4992;51.628;6.664;2023-06-24T06:02:11;13.05;;;11.25;;
9906;SDS011;4992;51.628;6.664;2023-06-24T06:04:38;14.02;;;11.43;;
9906;SDS011;4992;51.628;6.664;2023-06-24T06:07:04;12.20;;;10.57;;
9906;SDS011;4992;51.628;6.664;2023-06-24T06:09:30;13.07;;;11.13;;
9906;SDS011;4992;51.628;6.664;2023-06-24T06:11:56;12.45;;;11.18;;
9906;SDS011;4992;51.628;6.664;2023-06-24T06:14:22;12.82;;;11.52;;
9906;SDS011;4992;51.628;6.664;2023-06-24T06:16:48;11.95;;;10.77;;
9906;SDS011;4992;51.628;6.664;2023-06-24T06:19:14;16.92;;;11.73;;
9906;SDS011;4992;51.628;6.664;2023-06-24T06:21:40;13.57;;;11.10;;
9906;SDS011;4992;51.628;6.664;2023-06-24T06:24:06;12.45;;;11.25;;
9906;SDS011;4992;51.628;6.664;2023-06-24T06:26:32;12.90;;;11.65;;
9906;SDS011;4992;51.628;6.664;2023-06-24T06:28:57;14.23;;;11.05;;
9906;SDS011;4992;51.628;6.664;2023-06-24T06:31:23;12.50;;;11.27;;
9906;SDS011;4992;51.628;6.664;2023-06-24T06:33:50;12.48;;;11.07;;
9906;SDS011;4992;51.628;6.664;2023-06-24T06:36:16;15.30;;;12.70;;
9906;SDS011;4992;51.628;6.664;2023-06-24T06:38:42;14.50;;;13.05;;
9906;SDS011;4992;51.628;6.664;2023-06-24T06:41:08;14.50;;;13.00;;
9906;SDS011;4992;51.628;6.664;2023-06-24T06:43:34;14.90;;;13.32;;
9906;SDS011;4992;51.628;6.664;2023-06-24T06:46:00;15.75;;;12.95;;
9906;SDS011;4992;51.628;6.664;2023-06-24T06:48:26;13.68;;;12.38;;
9906;SDS011;4992;51.628;6.664;2023-06-24T06:50:52;15.52;;;13.30;;
9906;SDS011;4992;51.628;6.664;2023-06-24T06:53:18;14.88;;;13.48;;
9906;SDS011;4992;51.628;6.664;2023-06-24T06:55:44;14.48;;;13.18;;
9906;SDS011;4992;51.628;6.664;2023-06-24T06:58:10;18.00;;;14.38;;
9906;SDS011;4992;51.628;6.664;2023-06-24T07:00:36;18.45;;;14.85;;
9906;SDS011;4992;51.628;6.664;2023-06-24T07:03:02;16.83;;;15.10;;
9906;SDS011;4992;51.628;6.664;2023-06-24T07:05:28;16.10;;;14.70;;
9906;SDS011;4992;51.628;6.664;2023-06-24T07:07:54;16.27;;;14.73;;
9906;SDS011;4992;51.628;6.664;2023-06-24T07:10:20;17.95;;;15.13;;
9906;SDS011;4992;51.628;6.664;2023-06-24T07:12:46;21.40;;;15.75;;
9906;SDS011;4992;51.628;6.664;2023-06-24T07:15:12;18.70;;;16.48;;
9906;SDS011;4992;51.628;6.664;2023-06-24T07:17:38;19.65;;;17.70;;
9906;SDS011;4992;51.628;6.664;2023-06-24T07:20:04;19.00;;;17.27;;
9906;SDS011;4992;51.628;6.664;2023-06-24T07:22:30;18.73;;;16.80;;
9906;SDS011;4992;51.628;6.664;2023-06-24T07:24:57;21.42;;;17.98;;
9906;SDS011;4992;51.628;6.664;2023-06-24T07:27:23;19.08;;;17.17;;
9906;SDS011;4992;51.628;6.664;2023-06-24T07:29:49;19.77;;;17.80;;
9906;SDS011;4992;51.628;6.664;2023-06-24T07:32:15;18.20;;;16.30;;
9906;SDS011;4992;51.628;6.664;2023-06-24T07:34:41;19.83;;;17.48;;
9906;SDS011;4992;51.628;6.664;2023-06-24T07:37:06;19.48;;;17.65;;
9906;SDS011;4992;51.628;6.664;2023-06-24T07:39:32;19.50;;;17.58;;
9906;SDS011;4992;51.628;6.664;2023-06-24T07:41:58;18.92;;;17.02;;
9906;SDS011;4992;51.628;6.664;2023-06-24T07:44:24;21.23;;;17.92;;
9906;SDS011;4992;51.628;6.664;2023-06-24T07:46:50;18.23;;;16.45;;
9906;SDS011;4992;51.628;6.664;2023-06-24T07:49:17;19.52;;;17.67;;
9906;SDS011;4992;51.628;6.664;2023-06-24T07:51:43;19.60;;;17.83;;
9906;SDS011;4992;51.628;6.664;2023-06-24T07:54:10;20.25;;;18.10;;
9906;SDS011;4992;51.628;6.664;2023-06-24T07:56:36;19.13;;;17.13;;
9906;SDS011;4992;51.628;6.664;2023-06-24T07:59:02;17.58;;;15.88;;
9906;SDS011;4992;51.628;6.664;2023-06-24T08:01:28;18.83;;;16.98;;
9906;SDS011;4992;51.628;6.664;2023-06-24T08:03:54;17.92;;;16.23;;
9906;SDS011;4992;51.628;6.664;2023-06-24T08:06:20;19.90;;;17.85;;
9906;SDS011;4992;51.628;6.664;2023-06-24T08:08:46;17.27;;;15.65;;
9906;SDS011;4992;51.628;6.664;2023-06-24T08:11:12;15.40;;;14.00;;
9906;SDS011;4992;51.628;6.664;2023-06-24T08:13:38;16.05;;;14.48;;
9906;SDS011;4992;51.628;6.664;2023-06-24T08:16:04;14.23;;;12.57;;
9906;SDS011;4992;51.628;6.664;2023-06-24T08:18:30;14.00;;;12.70;;
9906;SDS011;4992;51.628;6.664;2023-06-24T08:20:56;13.90;;;12.60;;
9906;SDS011;4992;51.628;6.664;2023-06-24T08:23:22;16.25;;;12.90;;
9906;SDS011;4992;51.628;6.664;2023-06-24T08:25:48;15.55;;;14.07;;
9906;SDS011;4992;51.628;6.664;2023-06-24T08:28:14;16.08;;;14.57;;
9906;SDS011;4992;51.628;6.664;2023-06-24T08:30:40;15.80;;;14.40;;
9906;SDS011;4992;51.628;6.664;2023-06-24T08:33:06;18.48;;;14.18;;
9906;SDS011;4992;51.628;6.664;2023-06-24T08:35:32;14.27;;;12.95;;
9906;SDS011;4992;51.628;6.664;2023-06-24T08:37:58;14.93;;;13.35;;
9906;SDS011;4992;51.628;6.664;2023-06-24T08:40:24;11.27;;;9.48;;
9906;SDS011;4992;51.628;6.664;2023-06-24T08:42:49;9.38;;;8.57;;
9906;SDS011;4992;51.628;6.664;2023-06-24T08:45:16;8.82;;;7.93;;
9906;SDS011;4992;51.628;6.664;2023-06-24T08:47:42;10.82;;;7.45;;
9906;SDS011;4992;51.628;6.664;2023-06-24T08:50:11;7.97;;;7.18;;
9906;SDS011;4992;51.628;6.664;2023-06-24T08:52:38;6.70;;;6.00;;
9906;SDS011;4992;51.628;6.664;2023-06-24T08:55:06;6.78;;;6.18;;
9906;SDS011;4992;51.628;6.664;2023-06-24T08:57:34;6.28;;;5.65;;
9906;SDS011;4992;51.628;6.664;2023-06-24T09:00:00;7.15;;;6.30;;
9906;SDS011;4992;51.628;6.664;2023-06-24T09:02:26;8.55;;;6.38;;
9906;SDS011;4992;51.628;6.664;2023-06-24T09:04:53;6.55;;;5.78;;
9906;SDS011;4992;51.628;6.664;2023-06-24T09:07:26;7.43;;;5.90;;
9906;SDS011;4992;51.628;6.664;2023-06-24T09:09:55;7.32;;;5.82;;
9906;SDS011;4992;51.628;6.664;2023-06-24T09:12:21;7.72;;;6.20;;
9906;SDS011;4992;51.628;6.664;2023-06-24T09:14:48;7.45;;;6.47;;
9906;SDS011;4992;51.628;6.664;2023-06-24T09:17:14;6.97;;;6.30;;
9906;SDS011;4992;51.628;6.664;2023-06-24T09:19:40;6.30;;;5.70;;
9906;SDS011;4992;51.628;6.664;2023-06-24T09:22:06;10.63;;;6.28;;
9906;SDS011;4992;51.628;6.664;2023-06-24T09:24:33;7.25;;;6.18;;
9906;SDS011;4992;51.628;6.664;2023-06-24T09:26:59;6.32;;;5.72;;
9906;SDS011;4992;51.628;6.664;2023-06-24T09:29:26;6.10;;;5.55;;
9906;SDS011;4992;51.628;6.664;2023-06-24T09:31:52;5.35;;;4.95;;
9906;SDS011;4992;51.628;6.664;2023-06-24T09:34:20;8.00;;;6.30;;
9906;SDS011;4992;51.628;6.664;2023-06-24T09:36:53;6.43;;;5.28;;
9906;SDS011;4992;51.628;6.664;2023-06-24T09:39:22;11.82;;;5.80;;
9906;SDS011;4992;51.628;6.664;2023-06-24T09:41:57;6.85;;;5.63;;
9906;SDS011;4992;51.628;6.664;2023-06-24T09:44:24;7.30;;;5.20;;
9906;SDS011;4992;51.628;6.664;2023-06-24T09:46:50;5.40;;;4.90;;
9906;SDS011;4992;51.628;6.664;2023-06-24T09:49:17;6.47;;;4.70;;
9906;SDS011;4992;51.628;6.664;2023-06-24T09:51:44;6.22;;;5.05;;
9906;SDS011;4992;51.628;6.664;2023-06-24T09:54:11;4.13;;;3.72;;
9906;SDS011;4992;51.628;6.664;2023-06-24T09:56:40;5.47;;;3.95;;
9906;SDS011;4992;51.628;6.664;2023-06-24T09:59:09;4.43;;;4.03;;
9906;SDS011;4992;51.628;6.664;2023-06-24T10:01:38;4.30;;;3.88;;
9906;SDS011;4992;51.628;6.664;2023-06-24T10:04:05;5.68;;;4.03;;
9906;SDS011;4992;51.628;6.664;2023-06-24T10:06:32;4.07;;;3.78;;
9906;SDS011;4992;51.628;6.664;2023-06-24T10:08:59;4.97;;;4.47;;
9906;SDS011;4992;51.628;6.664;2023-06-24T10:11:25;5.90;;;5.10;;
9906;SDS011;4992;51.628;6.664;2023-06-24T10:13:51;6.13;;;4.95;;
9906;SDS011;4992;51.628;6.664;2023-06-24T10:16:17;5.03;;;4.13;;
9906;SDS011;4992;51.628;6.664;2023-06-24T10:18:44;6.22;;;4.13;;
9906;SDS011;4992;51.628;6.664;2023-06-24T10:21:10;3.78;;;3.47;;
9906;SDS011;4992;51.628;6.664;2023-06-24T10:26:09;5.25;;;4.75;;
9906;SDS011;4992;51.628;6.664;2023-06-24T10:29:07;4.88;;;4.18;;
9906;SDS011;4992;51.628;6.664;2023-06-24T10:31:39;4.82;;;3.72;;
9906;SDS011;4992;51.628;6.664;2023-06-24T10:36:55;4.85;;;4.35;;
9906;SDS011;4992;51.628;6.664;2023-06-24T10:39:34;4.50;;;4.10;;
9906;SDS011;4992;51.628;6.664;2023-06-24T10:42:24;3.50;;;3.20;;
9906;SDS011;4992;51.628;6.664;2023-06-24T10:44:47;4.63;;;3.75;;
9906;SDS011;4992;51.628;6.664;2023-06-24T10:47:13;3.58;;;3.28;;
9906;SDS011;4992;51.628;6.664;2023-06-24T10:49:39;3.25;;;2.78;;
9906;SDS011;4992;51.628;6.664;2023-06-24T10:52:07;3.90;;;3.47;;
9906;SDS011;4992;51.628;6.664;2023-06-24T10:54:34;7.18;;;4.55;;
9906;SDS011;4992;51.628;6.664;2023-06-24T10:57:00;5.60;;;3.20;;
9906;SDS011;4992;51.628;6.664;2023-06-24T10:59:26;4.35;;;3.30;;
9906;SDS011;4992;51.628;6.664;2023-06-24T11:01:53;7.75;;;3.72;;
9906;SDS011;4992;51.628;6.664;2023-06-24T11:04:19;4.32;;;3.92;;
9906;SDS011;4992;51.628;6.664;2023-06-24T11:07:01;4.38;;;3.63;;
9906;SDS011;4992;51.628;6.664;2023-06-24T11:09:27;3.38;;;3.08;;
9906;SDS011;4992;51.628;6.664;2023-06-24T11:11:53;3.28;;;2.78;;
9906;SDS011;4992;51.628;6.664;2023-06-24T11:14:19;5.90;;;2.83;;
9906;SDS011;4992;51.628;6.664;2023-06-24T11:16:45;2.92;;;2.63;;
9906;SDS011;4992;51.628;6.664;2023-06-24T11:19:11;3.38;;;2.40;;
9906;SDS011;4992;51.628;6.664;2023-06-24T11:21:37;2.40;;;2.20;;
9906;SDS011;4992;51.628;6.664;2023-06-24T11:24:03;3.55;;;3.25;;
9906;SDS011;4992;51.628;6.664;2023-06-24T11:26:29;3.20;;;2.90;;
9906;SDS011;4992;51.628;6.664;2023-06-24T11:28:56;2.92;;;2.72;;
9906;SDS011;4992;51.628;6.664;2023-06-24T11:31:25;4.78;;;2.10;;
9906;SDS011;4992;51.628;6.664;2023-06-24T11:33:51;2.60;;;2.40;;
9906;SDS011;4992;51.628;6.664;2023-06-24T11:36:17;3.75;;;2.80;;
9906;SDS011;4992;51.628;6.664;2023-06-24T11:38:45;2.65;;;2.45;;
9906;SDS011;4992;51.628;6.664;2023-06-24T11:41:11;6.15;;;2.35;;
9906;SDS011;4992;51.628;6.664;2023-06-24T11:43:37;4.93;;;2.60;;
9906;SDS011;4992;51.628;6.664;2023-06-24T11:46:03;3.00;;;2.72;;
9906;SDS011;4992;51.628;6.664;2023-06-24T11:48:29;2.67;;;2.42;;
9906;SDS011;4992;51.628;6.664;2023-06-24T11:50:55;2.63;;;2.13;;
9906;SDS011;4992;51.628;6.664;2023-06-24T11:53:30;3.05;;;2.13;;
9906;SDS011;4992;51.628;6.664;2023-06-24T11:55:56;3.00;;;2.28;;
9906;SDS011;4992;51.628;6.664;2023-06-24T11:58:22;2.40;;;2.20;;
9906;SDS011;4992;51.628;6.664;2023-06-24T12:00:48;2.72;;;2.35;;
9906;SDS011;4992;51.628;6.664;2023-06-24T12:03:17;2.92;;;2.05;;
9906;SDS011;4992;51.628;6.664;2023-06-24T12:05:42;1.90;;;1.80;;
9906;SDS011;4992;51.628;6.664;2023-06-24T12:08:12;2.65;;;1.85;;
9906;SDS011;4992;51.628;6.664;2023-06-24T12:10:40;2.13;;;1.92;;
9906;SDS011;4992;51.628;6.664;2023-06-24T12:13:06;2.50;;;2.30;;
9906;SDS011;4992;51.628;6.664;2023-06-24T12:15:33;2.10;;;2.00;;
9906;SDS011;4992;51.628;6.664;2023-06-24T12:18:00;2.38;;;1.70;;
9906;SDS011;4992;51.628;6.664;2023-06-24T12:20:27;2.25;;;2.10;;
9906;SDS011;4992;51.628;6.664;2023-06-24T12:22:53;3.78;;;1.88;;
9906;SDS011;4992;51.628;6.664;2023-06-24T12:25:19;3.58;;;3.25;;
9906;SDS011;4992;51.628;6.664;2023-06-24T12:27:45;2.83;;;2.53;;
9906;SDS011;4992;51.628;6.664;2023-06-24T12:30:12;2.42;;;2.13;;
9906;SDS011;4992;51.628;6.664;2023-06-24T12:32:38;2.53;;;1.77;;
9906;SDS011;4992;51.628;6.664;2023-06-24T12:35:04;3.03;;;2.75;;
9906;SDS011;4992;51.628;6.664;2023-06-24T12:37:31;3.30;;;2.30;;
9906;SDS011;4992;51.628;6.664;2023-06-24T12:39:58;2.97;;;2.50;;
9906;SDS011;4992;51.628;6.664;2023-06-24T12:42:24;2.50;;;1.98;;
9906;SDS011;4992;51.628;6.664;2023-06-24T12:44:50;3.53;;;2.13;;
9906;SDS011;4992;51.628;6.664;2023-06-24T12:47:16;2.28;;;2.10;;
9906;SDS011;4992;51.628;6.664;2023-06-24T12:49:43;2.75;;;1.95;;
9906;SDS011;4992;51.628;6.664;2023-06-24T12:52:09;1.90;;;1.80;;
9906;SDS011;4992;51.628;6.664;2023-06-24T12:54:35;1.75;;;1.65;;
9906;SDS011;4992;51.628;6.664;2023-06-24T12:57:01;5.65;;;1.77;;
9906;SDS011;4992;51.628;6.664;2023-06-24T12:59:27;1.98;;;1.77;;
9906;SDS011;4992;51.628;6.664;2023-06-24T13:01:53;1.70;;;1.60;;
9906;SDS011;4992;51.628;6.664;2023-06-24T13:04:19;2.58;;;1.80;;
9906;SDS011;4992;51.628;6.664;2023-06-24T13:06:47;2.25;;;1.48;;
9906;SDS011;4992;51.628;6.664;2023-06-24T13:09:14;2.58;;;1.60;;
9906;SDS011;4992;51.628;6.664;2023-06-24T13:11:40;1.65;;;1.45;;
9906;SDS011;4992;51.628;6.664;2023-06-24T13:14:06;1.65;;;1.55;;
9906;SDS011;4992;51.628;6.664;2023-06-24T13:16:32;1.40;;;1.30;;
9906;SDS011;4992;51.628;6.664;2023-06-24T13:18:58;3.80;;;1.85;;
9906;SDS011;4992;51.628;6.664;2023-06-24T13:21:24;1.33;;;1.33;;
9906;SDS011;4992;51.628;6.664;2023-06-24T13:23:50;2.55;;;1.42;;
9906;SDS011;4992;51.628;6.664;2023-06-24T13:26:15;2.45;;;1.50;;
9906;SDS011;4992;51.628;6.664;2023-06-24T13:28:41;1.75;;;1.55;;
9906;SDS011;4992;51.628;6.664;2023-06-24T13:31:08;1.70;;;1.50;;
9906;SDS011;4992;51.628;6.664;2023-06-24T13:33:34;2.10;;;1.50;;
9906;SDS011;4992;51.628;6.664;2023-06-24T13:36:00;1.98;;;1.40;;
9906;SDS011;4992;51.628;6.664;2023-06-24T13:38:27;5.75;;;1.38;;
9906;SDS011;4992;51.628;6.664;2023-06-24T13:40:53;1.58;;;1.48;;
9906;SDS011;4992;51.628;6.664;2023-06-24T13:43:19;2.20;;;1.40;;
9906;SDS011;4992;51.628;6.664;2023-06-24T13:45:45;1.65;;;1.55;;
9906;SDS011;4992;51.628;6.664;2023-06-24T13:48:11;1.50;;;1.40;;
9906;SDS011;4992;51.628;6.664;2023-06-24T13:50:37;1.60;;;1.30;;
9906;SDS011;4992;51.628;6.664;2023-06-24T13:53:03;2.08;;;1.20;;
9906;SDS011;4992;51.628;6.664;2023-06-24T13:55:29;1.40;;;1.27;;
9906;SDS011;4992;51.628;6.664;2023-06-24T13:57:56;1.65;;;1.55;;
9906;SDS011;4992;51.628;6.664;2023-06-24T14:00:22;2.20;;;1.98;;
9906;SDS011;4992;51.628;6.664;2023-06-24T14:02:48;2.75;;;1.80;;
9906;SDS011;4992;51.628;6.664;2023-06-24T14:05:14;1.80;;;1.70;;
9906;SDS011;4992;51.628;6.664;2023-06-24T14:07:40;1.50;;;1.40;;
9906;SDS011;4992;51.628;6.664;2023-06-24T14:10:06;1.40;;;1.20;;
9906;SDS011;4992;51.628;6.664;2023-06-24T14:12:32;1.52;;;1.40;;
9906;SDS011;4992;51.628;6.664;2023-06-24T14:14:58;1.33;;;1.30;;
9906;SDS011;4992;51.628;6.664;2023-06-24T14:17:24;2.40;;;1.40;;
9906;SDS011;4992;51.628;6.664;2023-06-24T14:19:50;2.03;;;1.83;;
9906;SDS011;4992;51.628;6.664;2023-06-24T14:22:16;1.52;;;1.42;;
9906;SDS011;4992;51.628;6.664;2023-06-24T14:24:42;1.80;;;1.70;;
9906;SDS011;4992;51.628;6.664;2023-06-24T14:27:08;2.22;;;1.50;;
9906;SDS011;4992;51.628;6.664;2023-06-24T14:29:34;1.92;;;1.63;;
9906;SDS011;4992;51.628;6.664;2023-06-24T14:32:00;1.90;;;1.80;;
9906;SDS011;4992;51.628;6.664;2023-06-24T14:34:26;2.30;;;2.10;;
9906;SDS011;4992;51.628;6.664;2023-06-24T14:36:54;1.50;;;1.40;;
9906;SDS011;4992;51.628;6.664;2023-06-24T14:39:20;2.00;;;1.50;;
9906;SDS011;4992;51.628;6.664;2023-06-24T14:41:46;1.65;;;1.55;;
9906;SDS011;4992;51.628;6.664;2023-06-24T14:44:12;2.35;;;1.50;;
9906;SDS011;4992;51.628;6.664;2023-06-24T14:46:38;1.75;;;1.65;;
9906;SDS011;4992;51.628;6.664;2023-06-24T14:49:04;1.73;;;1.63;;
9906;SDS011;4992;51.628;6.664;2023-06-24T14:51:30;1.85;;;1.70;;
9906;SDS011;4992;51.628;6.664;2023-06-24T14:53:56;1.67;;;1.58;;
9906;SDS011;4992;51.628;6.664;2023-06-24T14:56:22;1.90;;;1.80;;
9906;SDS011;4992;51.628;6.664;2023-06-24T14:58:48;2.00;;;1.90;;
9906;SDS011;4992;51.628;6.664;2023-06-24T15:01:14;2.20;;;1.85;;
9906;SDS011;4992;51.628;6.664;2023-06-24T15:03:40;2.15;;;1.95;;
9906;SDS011;4992;51.628;6.664;2023-06-24T15:06:06;2.13;;;1.88;;
9906;SDS011;4992;51.628;6.664;2023-06-24T15:08:32;1.77;;;1.50;;
9906;SDS011;4992;51.628;6.664;2023-06-24T15:10:58;1.70;;;1.60;;
9906;SDS011;4992;51.628;6.664;2023-06-24T15:13:24;1.95;;;1.65;;
9906;SDS011;4992;51.628;6.664;2023-06-24T15:15:49;2.03;;;1.80;;
9906;SDS011;4992;51.628;6.664;2023-06-24T15:18:17;3.10;;;1.80;;